• Join FlightAware (Why Join?)
  • Login
  • US Flag 
01:34PM EDT


 

Airport Tracker/Info


-or-


 

Live Flight TrackerFlight Track Log ✈ N5349M ✈ 30-Jun-2013 ✈ 0A9 - KJWN

Flight Track Log - Related Links

Times and Time Zones

All times are in EDT time to prevent confusion due to time zone crossing. See the N5349M flight status page for this flight to view local times or setup timezone preferences in your user account.

Time Position Orientation Groundspeed Altitude Reporting Facility
EDT Latitude Longitude Course Direction KTS MPH feet Rate Location/Type
06:57PM 36.3538 -82.4290 263° West  Level FlightAware Approximate
06:58PM 36.3500 -82.4814 270° West  Level FlightAware Approximate
06:59PM 36.3494 -82.5340 269° West  Level FlightAware Approximate
07:00PM 36.3486 -82.5866 269° West  Level FlightAware Approximate
07:01PM 36.3477 -82.6393 269° West  Level FlightAware Approximate
07:02PM 36.3468 -82.6919 269° West  Level FlightAware Approximate
07:03PM 36.3458 -82.7446 269° West  Level FlightAware Approximate
07:04PM 36.3449 -82.7972 269° West  Level FlightAware Approximate
07:05PM 36.3439 -82.8499 269° West  Level FlightAware Approximate
07:06PM 36.3429 -82.9025 269° West  Level FlightAware Approximate
07:07PM 36.3418 -82.9551 269° West  Level FlightAware Approximate
07:08PM 36.3408 -83.0078 269° West  Level FlightAware Approximate
07:09PM 36.3397 -83.0604 269° West  Level FlightAware Approximate
07:10PM 36.3386 -83.1130 269° West  Level FlightAware Approximate
07:11PM 36.3375 -83.1656 268° West  Level FlightAware Approximate
07:12PM 36.3363 -83.2183 268° West  Level FlightAware Approximate
07:13PM 36.3351 -83.2709 268° West  Level FlightAware Approximate
07:14PM 36.3339 -83.3235 268° West  Level FlightAware Approximate
07:15PM 36.3324 -83.3761 268° West  Level FlightAware Approximate
07:16PM 36.3306 -83.4287 268° West  Level FlightAware Approximate
07:17PM 36.3288 -83.4813 268° West  Level FlightAware Approximate
07:18PM 36.3269 -83.5339 268° West  Level FlightAware Approximate
07:19PM 36.3251 -83.5865 267° West  Level FlightAware Approximate
07:20PM 36.3231 -83.6391 267° West  Level FlightAware Approximate
07:21PM 36.3212 -83.6917 267° West  Level FlightAware Approximate
07:22PM 36.3193 -83.7442 267° West  Level FlightAware Approximate
07:23PM 36.3173 -83.7968 267° West  Level FlightAware Approximate
07:24PM 36.3153 -83.8494 267° West  Level FlightAware Approximate
07:25PM 36.3133 -83.9020 267° West  Level FlightAware Approximate
07:26PM 36.3112 -83.9545 267° West  Level FlightAware Approximate
07:26PM 36.2211 -84.0361 267° West 164 189 8,100  Level Atlanta Center
07:27PM 36.3092 -84.0071 267° West  Level FlightAware Approximate
07:27PM 36.2208 -84.0928 270° West 164 189 8,100  Level Atlanta Center
07:28PM 36.3071 -84.0597 267° West  Level FlightAware Approximate
07:28PM 36.2231 -84.1469 273° West 164 189 8,100  Level Atlanta Center
07:29PM 36.3050 -84.1122 267° West  Level FlightAware Approximate
07:29PM 36.2208 -84.2008 267° West 159 183 8,100  Level Atlanta Center
07:30PM 36.3028 -84.1648 267° West  Level FlightAware Approximate
07:30PM 36.2208 -84.2575 270° West 159 183 8,100  Level Atlanta Center
07:31PM 36.3007 -84.2173 267° West  Level FlightAware Approximate
07:31PM 36.2206 -84.3142 270° West 159 183 8,100  Level Atlanta Center
07:32PM 36.2206 -84.3681 270° West 159 183 8,100  Level Atlanta Center
07:33PM 36.2203 -84.4222 270° West 159 183 8,100  Level Atlanta Center
07:34PM 36.2203 -84.4761 270° West 159 183 8,100  Level Atlanta Center
07:35PM 36.2178 -84.5328 267° West 159 183 8,100  Level Atlanta Center
07:36PM 36.2178 -84.5869 270° West 159 183 8,200  Climbing Atlanta Center
07:37PM 36.2194 -84.6383 272° West 159 183 8,200  Level Atlanta Center
07:38PM 36.2192 -84.6925 270° West 159 183 8,200  Level Atlanta Center
07:39PM 36.2169 -84.7464 267° West 159 183 8,200  Level Atlanta Center
07:40PM 36.2178 -84.7778 272° West 153 176 8,200  Level Indianapolis Center
07:41PM 36.2172 -84.8308 269° West 154 177 8,200  Level Indianapolis Center
07:42PM 36.2169 -84.8833 270° West 154 177 8,200  Level Indianapolis Center
07:43PM 36.2164 -84.9364 269° West 155 178 8,200  Level Indianapolis Center